Time;durP1;ratioP1;P1;durP2;ratioP2;P2;SDS_P1;SDS_P2;PMS_P1;PMS_P2;Temp;Humidity;BMP_temperature;BMP_pressure;BME280_temperature;BME280_humidity;BME280_pressure;Samples;Min_cycle;Max_cycle;Signal;HPM_P1;HPM_P2
2024/02/23 00:01:25;;;;;;;;;;;;;;;2.21;100.00;98221.66;5093230;28;19926;-78
2024/02/23 00:03:50;;;;;;;;;;;;;;;2.18;100.00;98235.34;5100368;28;20011;-77
2024/02/23 00:06:15;;;;;;;;;;;;;;;2.23;100.00;98242.66;5102496;28;19958;-77
2024/02/23 00:08:41;;;;;;;;;;;;;;;2.25;100.00;98232.66;5103286;28;19926;-77
2024/02/23 00:11:06;;;;;;;;;;;;;;;2.34;100.00;98254.50;5094640;28;19928;-78
2024/02/23 00:13:32;;;;;;;;;;;;;;;2.27;100.00;98251.88;5102291;28;19959;-77
2024/02/23 00:15:57;;;;;;;;;;;;;;;2.27;100.00;98265.97;5106121;28;19920;-77
2024/02/23 00:18:22;;;;;;;;;;;;;;;2.32;100.00;98270.66;5109270;28;19942;-77
2024/02/23 00:20:47;;;;;;;;;;;;;;;2.37;100.00;98275.31;5093723;28;19928;-77
2024/02/23 00:23:12;;;;;;;;;;;;;;;2.34;100.00;98263.28;5098928;28;20418;-77
2024/02/23 00:25:38;;;;;;;;;;;;;;;2.34;100.00;98265.94;5120536;28;19923;-77
2024/02/23 00:28:03;;;;;;;;;;;;;;;2.38;100.00;98277.75;5112723;28;19927;-77
2024/02/23 00:30:28;;;;;;;;;;;;;;;2.37;100.00;98292.09;5102573;28;19924;-78
2024/02/23 00:32:54;;;;;;;;;;;;;;;2.39;100.00;98294.53;5104369;28;19921;-77
2024/02/23 00:35:20;;;;;;;;;;;;;;;2.42;100.00;98296.78;5099893;28;19946;-77
2024/02/23 00:37:45;;;;;;;;;;;;;;;2.43;100.00;98317.00;5093079;28;20000;-78
2024/02/23 00:40:11;;;;;;;;;;;;;;;2.48;100.00;98309.19;5105408;28;20322;-78
2024/02/23 00:42:36;;;;;;;;;;;;;;;2.43;100.00;98317.00;5097205;28;19916;-77
2024/02/23 00:45:01;;;;;;;;;;;;;;;2.46;100.00;98315.75;5101523;28;19919;-77
2024/02/23 00:47:26;;;;;;;;;;;;;;;2.41;100.00;98321.69;5109945;28;19992;-77
2024/02/23 00:49:52;;;;;;;;;;;;;;;2.42;100.00;98329.44;5100863;28;19916;-77
2024/02/23 00:52:17;;;;;;;;;;;;;;;2.40;100.00;98342.09;5108297;28;19985;-77
2024/02/23 00:54:42;;;;;;;;;;;;;;;2.39;100.00;98344.97;5097877;28;19924;-77
2024/02/23 00:57:08;;;;;;;;;;;;;;;2.22;100.00;98348.03;5096779;28;19934;-77
2024/02/23 00:59:33;;;;;;;;;;;;;;;2.24;100.00;98345.19;5106192;28;19928;-78
2024/02/23 01:01:59;;;;;;;;;;;;;;;2.47;100.00;98349.25;5100144;28;19973;-77
2024/02/23 01:04:24;;;;;;;;;;;;;;;2.48;100.00;98362.31;5101510;28;20365;-77
2024/02/23 01:06:49;;;;;;;;;;;;;;;2.63;100.00;98363.94;5101599;28;19924;-77
2024/02/23 01:09:16;;;;;;;;;;;;;;;2.71;100.00;98363.72;5101445;28;20018;-77
2024/02/23 01:11:41;;;;;;;;;;;;;;;2.68;100.00;98367.63;5102860;28;20003;-78
2024/02/23 01:14:07;;;;;;;;;;;;;;;2.76;100.00;98368.41;5095341;28;19963;-77
2024/02/23 01:16:32;;;;;;;;;;;;;;;2.75;100.00;98394.16;5110716;28;19904;-77
2024/02/23 01:18:57;;;;;;;;;;;;;;;2.61;100.00;98393.34;5112591;28;20428;-77
2024/02/23 01:21:23;;;;;;;;;;;;;;;2.66;100.00;98398.03;5101575;28;19928;-77
2024/02/23 01:23:48;;;;;;;;;;;;;;;2.56;100.00;98399.28;5110819;22;19934;-77
2024/02/23 01:26:13;;;;;;;;;;;;;;;2.55;100.00;98402.97;5124194;27;19976;-78
2024/02/23 01:28:38;;;;;;;;;;;;;;;2.58;100.00;98409.69;5128947;27;19940;-77
2024/02/23 01:31:04;;;;;;;;;;;;;;;2.59;100.00;98403.38;5118708;27;20033;-77
2024/02/23 01:33:29;;;;;;;;;;;;;;;2.66;100.00;98406.84;5137086;27;19931;-77
2024/02/23 01:35:56;;;;;;;;;;;;;;;2.63;100.00;98403.78;5127466;27;19919;-77
2024/02/23 01:38:22;;;;;;;;;;;;;;;2.75;100.00;98415.41;5138735;27;19923;-77
2024/02/23 01:40:47;;;;;;;;;;;;;;;3.00;100.00;98422.75;5132819;27;19930;-76
2024/02/23 01:43:15;;;;;;;;;;;;;;;3.06;100.00;98419.25;5144388;27;19919;-77
2024/02/23 01:45:41;;;;;;;;;;;;;;;3.05;100.00;98414.94;5150178;27;19934;-77
2024/02/23 01:48:06;;;;;;;;;;;;;;;3.10;100.00;98428.44;5124792;27;19923;-77
2024/02/23 01:50:37;;;;;;;;;;;;;;;3.03;100.00;98438.25;5126765;27;20390;-77
2024/02/23 01:53:03;;;;;;;;;;;;;;;3.06;100.00;98429.88;5125682;27;19931;-77
2024/02/23 01:55:28;;;;;;;;;;;;;;;3.14;100.00;98403.06;5128074;27;19919;-77
2024/02/23 01:57:53;;;;;;;;;;;;;;;3.16;100.00;98430.28;5116689;27;19973;-78
2024/02/23 02:00:18;;;;;;;;;;;;;;;3.14;100.00;98434.97;5118793;27;19920;-77
2024/02/23 02:02:44;;;;;;;;;;;;;;;3.13;100.00;98433.34;5118547;27;20375;-76
2024/02/23 02:05:09;;;;;;;;;;;;;;;3.17;100.00;98439.06;5126528;27;20064;-76
2024/02/23 02:07:34;;;;;;;;;;;;;;;3.18;100.00;98440.69;5119142;27;19920;-77
2024/02/23 02:10:03;;;;;;;;;;;;;;;3.25;100.00;98443.31;5131157;27;20442;-77
2024/02/23 02:12:29;;;;;;;;;;;;;;;3.29;100.00;98436.56;5130983;27;20009;-76
2024/02/23 02:14:55;;;;;;;;;;;;;;;3.21;100.00;98444.75;5130716;27;20002;-76
2024/02/23 02:17:20;;;;;;;;;;;;;;;3.18;100.00;98452.13;5115469;28;19923;-76
2024/02/23 02:19:50;;;;;;;;;;;;;;;3.25;100.00;98446.81;5123684;27;19942;-77
2024/02/23 02:22:15;;;;;;;;;;;;;;;3.24;100.00;98444.34;5131367;27;20577;-77
2024/02/23 02:24:43;;;;;;;;;;;;;;;3.23;100.00;98448.03;5122051;27;19923;-77
2024/02/23 02:27:08;;;;;;;;;;;;;;;3.24;100.00;98449.66;5126076;27;19919;-78
2024/02/23 02:29:34;;;;;;;;;;;;;;;3.19;100.00;98439.66;5123441;27;20022;-76
2024/02/23 02:32:00;;;;;;;;;;;;;;;3.16;100.00;98454.19;5133777;27;20386;-77
2024/02/23 02:34:25;;;;;;;;;;;;;;;3.05;100.00;98451.34;5118358;27;19920;-77
2024/02/23 02:36:51;;;;;;;;;;;;;;;3.09;100.00;98450.72;5122373;27;20002;-77
2024/02/23 02:39:19;;;;;;;;;;;;;;;3.13;100.00;98438.66;5125243;27;20283;-77
2024/02/23 02:41:44;;;;;;;;;;;;;;;3.14;100.00;98444.78;5133693;27;20293;-77
2024/02/23 02:44:09;;;;;;;;;;;;;;;3.12;100.00;98446.81;5133744;27;20022;-78
2024/02/23 02:46:35;;;;;;;;;;;;;;;3.13;100.00;98462.59;5126335;27;20022;-77
2024/02/23 02:49:00;;;;;;;;;;;;;;;3.09;100.00;98468.53;5131879;27;20520;-77
2024/02/23 02:51:25;;;;;;;;;;;;;;;2.99;100.00;98471.63;5123246;27;20026;-77
2024/02/23 02:53:51;;;;;;;;;;;;;;;3.10;100.00;98465.66;5128520;27;20010;-77
2024/02/23 02:56:16;;;;;;;;;;;;;;;3.12;100.00;98452.97;5126683;27;19966;-77
2024/02/23 02:58:41;;;;;;;;;;;;;;;3.09;100.00;98463.22;5123165;27;19930;-77
2024/02/23 03:01:07;;;;;;;;;;;;;;;3.10;100.00;98467.47;5126595;27;20055;-77
2024/02/23 03:03:32;;;;;;;;;;;;;;;3.22;100.00;98467.66;5128741;27;20513;-78
2024/02/23 03:05:58;;;;;;;;;;;;;;;3.24;100.00;98455.81;5124767;27;19927;-77
2024/02/23 03:08:23;;;;;;;;;;;;;;;3.25;100.00;98461.94;5127886;27;19927;-76
2024/02/23 03:10:48;;;;;;;;;;;;;;;3.29;100.00;98463.97;5132486;27;20284;-77
2024/02/23 03:13:13;;;;;;;;;;;;;;;3.33;100.00;98464.38;5116081;27;19926;-77
2024/02/23 03:15:39;;;;;;;;;;;;;;;3.38;100.00;98440.63;5116143;27;19920;-77
2024/02/23 03:18:04;;;;;;;;;;;;;;;3.34;100.00;98460.69;5121913;27;19927;-78
2024/02/23 03:20:29;;;;;;;;;;;;;;;3.32;100.00;98474.19;5116524;27;20279;-76
2024/02/23 03:22:55;;;;;;;;;;;;;;;3.32;100.00;98465.41;5125337;27;19950;-77
2024/02/23 03:25:20;;;;;;;;;;;;;;;3.28;100.00;98440.25;5113829;28;19973;-77
2024/02/23 03:27:49;;;;;;;;;;;;;;;3.31;100.00;98475.22;5118047;27;20302;-77
2024/02/23 03:30:14;;;;;;;;;;;;;;;3.18;100.00;98469.94;5138839;27;20374;-77
2024/02/23 03:32:39;;;;;;;;;;;;;;;3.16;100.00;98470.16;5126887;27;19949;-78
2024/02/23 03:35:05;;;;;;;;;;;;;;;3.13;100.00;98473.22;5121096;27;19924;-78
2024/02/23 03:37:30;;;;;;;;;;;;;;;3.12;100.00;98478.72;5118396;22;19928;-76
2024/02/23 03:39:55;;;;;;;;;;;;;;;3.09;100.00;98479.16;5113971;28;19907;-80
2024/02/23 03:42:20;;;;;;;;;;;;;;;3.00;100.00;98459.97;5113638;28;19931;-81
2024/02/23 03:44:49;;;;;;;;;;;;;;;2.95;100.00;98483.66;5101878;28;20286;-79
2024/02/23 03:47:14;;;;;;;;;;;;;;;2.89;100.00;98485.31;5108740;28;20009;-79
2024/02/23 03:49:39;;;;;;;;;;;;;;;2.80;100.00;98487.38;5112643;28;19963;-79
2024/02/23 03:52:05;;;;;;;;;;;;;;;2.83;100.00;98481.63;5110278;28;19965;-79
2024/02/23 03:54:31;;;;;;;;;;;;;;;2.78;100.00;98504.50;5102648;28;19924;-79
2024/02/23 03:56:56;;;;;;;;;;;;;;;2.77;100.00;98498.41;5105885;28;20344;-79
2024/02/23 03:59:24;;;;;;;;;;;;;;;2.72;100.00;98511.47;5089077;28;20424;-79
2024/02/23 04:01:49;;;;;;;;;;;;;;;2.82;100.00;98511.06;5095307;28;19919;-79
2024/02/23 04:04:15;;;;;;;;;;;;;;;2.81;100.00;98496.97;5114959;28;19967;-79
2024/02/23 04:06:40;;;;;;;;;;;;;;;2.70;100.00;98509.03;5133585;28;19923;-78
2024/02/23 04:09:06;;;;;;;;;;;;;;;2.70;100.00;98509.03;5111230;28;19920;-79
2024/02/23 04:11:31;;;;;;;;;;;;;;;2.72;100.00;98520.28;5104127;28;19920;-79
2024/02/23 04:13:56;;;;;;;;;;;;;;;2.75;100.00;98519.03;5106175;28;20260;-79
2024/02/23 04:16:23;;;;;;;;;;;;;;;2.76;100.00;98525.16;5107450;28;19932;-80
2024/02/23 04:18:48;;;;;;;;;;;;;;;2.79;100.00;98522.94;5096187;28;19927;-79
2024/02/23 04:21:16;;;;;;;;;;;;;;;2.75;100.00;98532.31;5093973;28;20014;-79
2024/02/23 04:23:42;;;;;;;;;;;;;;;2.67;100.00;98520.06;5101453;28;19927;-79
2024/02/23 04:26:08;;;;;;;;;;;;;;;2.66;100.00;98526.38;5094900;28;19920;-78
2024/02/23 04:28:33;;;;;;;;;;;;;;;2.65;100.00;98537.22;5101462;28;20421;-79
2024/02/23 04:30:59;;;;;;;;;;;;;;;2.63;100.00;98539.25;5096007;28;19920;-78
2024/02/23 04:33:24;;;;;;;;;;;;;;;2.66;100.00;98533.53;5109408;28;19919;-78
2024/02/23 04:35:49;;;;;;;;;;;;;;;2.66;100.00;98528.22;5118455;28;19924;-78
2024/02/23 04:38:14;;;;;;;;;;;;;;;2.61;100.00;98542.09;5080909;28;20115;-78
2024/02/23 04:40:40;;;;;;;;;;;;;;;2.58;100.00;98527.41;5116478;28;19959;-78
2024/02/23 04:43:05;;;;;;;;;;;;;;;2.68;100.00;98536.78;5098666;28;19920;-80
2024/02/23 04:45:32;;;;;;;;;;;;;;;2.68;100.00;98536.78;5096387;28;19920;-79
2024/02/23 04:47:57;;;;;;;;;;;;;;;2.69;100.00;98533.13;5116159;28;20358;-79
2024/02/23 04:50:23;;;;;;;;;;;;;;;2.76;100.00;98544.59;5107106;28;19920;-80
2024/02/23 04:52:50;;;;;;;;;;;;;;;2.72;100.00;98544.19;5099059;28;19931;-79
2024/02/23 04:55:15;;;;;;;;;;;;;;;2.84;100.00;98560.31;5094022;28;19923;-79
2024/02/23 04:57:40;;;;;;;;;;;;;;;2.90;100.00;98565.84;5125394;28;19911;-79
2024/02/23 05:00:07;;;;;;;;;;;;;;;2.90;100.00;98571.16;5119052;28;19928;-79
2024/02/23 05:02:35;;;;;;;;;;;;;;;2.82;100.00;98559.72;5088123;28;19927;-78
2024/02/23 05:05:00;;;;;;;;;;;;;;;2.88;100.00;98571.38;5103990;28;19923;-79
2024/02/23 05:07:27;;;;;;;;;;;;;;;2.95;100.00;98569.53;5099690;28;19965;-79
2024/02/23 05:09:52;;;;;;;;;;;;;;;2.95;100.00;98579.34;5111287;28;19920;-79
2024/02/23 05:12:17;;;;;;;;;;;;;;;2.95;100.00;98568.72;5110935;28;19926;-79
2024/02/23 05:14:42;;;;;;;;;;;;;;;2.97;100.00;98569.34;5095535;28;20022;-79
2024/02/23 05:19:35;;;;;;;;;;;;;;;3.00;100.00;98567.06;5125788;22;19930;-79
2024/02/23 05:22:04;;;;;;;;;;;;;;;3.01;100.00;98583.81;5106894;28;19928;-79
2024/02/23 05:24:29;;;;;;;;;;;;;;;3.02;100.00;98574.84;5115175;28;19930;-79
2024/02/23 05:26:54;;;;;;;;;;;;;;;3.03;100.00;98581.78;5114316;28;20006;-79
2024/02/23 05:29:22;;;;;;;;;;;;;;;3.10;100.00;98572.00;5100808;28;19935;-79
2024/02/23 05:31:51;;;;;;;;;;;;;;;3.10;100.00;98572.00;5097986;28;20386;-79
2024/02/23 05:34:17;;;;;;;;;;;;;;;3.13;100.00;98560.94;5096686;28;19999;-79
2024/02/23 05:36:43;;;;;;;;;;;;;;;3.12;100.00;98572.59;5095133;28;19926;-78
2024/02/23 05:39:09;;;;;;;;;;;;;;;3.13;100.00;98565.44;5103602;28;21254;-79
2024/02/23 05:41:34;;;;;;;;;;;;;;;3.09;100.00;98564.22;5107170;28;20415;-79
2024/02/23 05:43:59;;;;;;;;;;;;;;;3.15;100.00;98553.59;5098027;28;20010;-79
2024/02/23 05:46:25;;;;;;;;;;;;;;;3.23;100.00;98580.97;5105777;28;19919;-78
2024/02/23 05:48:50;;;;;;;;;;;;;;;3.23;100.00;98580.97;5112620;28;19980;-78
2024/02/23 05:51:18;;;;;;;;;;;;;;;3.30;100.00;98577.28;5103347;28;19935;-78
2024/02/23 05:53:43;;;;;;;;;;;;;;;3.28;100.00;98587.31;5102336;28;19927;-78
2024/02/23 05:56:09;;;;;;;;;;;;;;;3.32;100.00;98591.19;5104061;28;19924;-78
2024/02/23 05:58:38;;;;;;;;;;;;;;;3.33;100.00;98595.50;5096730;28;20025;-79
2024/02/23 06:01:03;;;;;;;;;;;;;;;3.37;100.00;98574.63;5107317;28;19920;-78
2024/02/23 06:03:29;;;;;;;;;;;;;;;3.43;100.00;98610.22;5096299;28;19924;-79
2024/02/23 06:05:54;;;;;;;;;;;;;;;3.43;100.00;98608.38;5103109;28;19923;-79
2024/02/23 06:08:19;;;;;;;;;;;;;;;3.44;100.00;98609.22;5096380;28;20018;-79
2024/02/23 06:10:44;;;;;;;;;;;;;;;3.44;100.00;98594.06;5113030;28;19920;-80
2024/02/23 06:13:10;;;;;;;;;;;;;;;3.53;100.00;98610.63;5104045;28;20006;-79
2024/02/23 06:15:35;;;;;;;;;;;;;;;3.54;100.00;98609.59;5114215;28;20344;-79
2024/02/23 06:18:00;;;;;;;;;;;;;;;3.56;100.00;98612.03;5108020;28;20371;-79
2024/02/23 06:20:25;;;;;;;;;;;;;;;3.56;100.00;98623.50;5099340;28;19927;-79
2024/02/23 06:22:50;;;;;;;;;;;;;;;3.61;100.00;98617.56;5109095;28;19919;-79
2024/02/23 06:25:16;;;;;;;;;;;;;;;3.61;100.00;98610.41;5115968;28;19920;-79
2024/02/23 06:27:41;;;;;;;;;;;;;;;3.66;100.00;98615.09;5102978;28;19919;-79
2024/02/23 06:30:06;;;;;;;;;;;;;;;3.68;100.00;98623.72;5115169;28;20363;-79
2024/02/23 06:32:32;;;;;;;;;;;;;;;3.68;100.00;98630.84;5105508;28;20325;-80
2024/02/23 06:34:57;;;;;;;;;;;;;;;3.69;100.00;98632.50;5095948;28;19920;-79
2024/02/23 06:37:23;;;;;;;;;;;;;;;3.69;100.00;98628.00;5103970;28;20010;-78
2024/02/23 06:39:54;;;;;;;;;;;;;;;3.72;100.00;98608.94;5115325;28;20260;-78
2024/02/23 06:42:19;;;;;;;;;;;;;;;3.74;100.00;98625.53;5081628;28;19920;-78
2024/02/23 06:44:45;;;;;;;;;;;;;;;3.75;100.00;98611.19;5079189;28;19943;-78
2024/02/23 06:47:10;;;;;;;;;;;;;;;3.76;100.00;98607.50;5105230;28;19916;-78
2024/02/23 06:49:38;;;;;;;;;;;;;;;3.77;100.00;98606.47;5109178;28;19967;-77
2024/02/23 06:52:03;;;;;;;;;;;;;;;3.79;99.60;98616.94;5094392;28;19959;-78
2024/02/23 06:54:28;;;;;;;;;;;;;;;3.81;100.00;98593.56;5106271;28;19938;-79
2024/02/23 06:56:54;;;;;;;;;;;;;;;3.83;100.00;98627.97;5099809;28;19919;-79
2024/02/23 06:59:19;;;;;;;;;;;;;;;3.86;100.00;98623.03;5107412;28;19924;-81
2024/02/23 07:01:51;;;;;;;;;;;;;;;3.88;99.61;98614.88;5116672;28;20301;-81
2024/02/23 07:04:19;;;;;;;;;;;;;;;3.95;98.55;98620.97;5095754;28;19919;-78
2024/02/23 07:06:44;;;;;;;;;;;;;;;3.97;98.05;98618.91;5128680;28;19934;-79
2024/02/23 07:09:11;;;;;;;;;;;;;;;4.02;97.08;98589.84;5103161;28;19979;-79
2024/02/23 07:11:36;;;;;;;;;;;;;;;4.09;96.00;98606.59;5114410;28;20358;-87
2024/02/23 07:14:12;;;;;;;;;;;;;;;4.12;95.15;98615.19;5135082;22;21631;-78
2024/02/23 07:16:43;;;;;;;;;;;;;;;4.16;95.32;98608.41;5091783;28;19927;-75
2024/02/23 07:19:09;;;;;;;;;;;;;;;4.22;94.54;98626.22;5085613;28;19919;-75
2024/02/23 07:21:53;;;;;;;;;;;;;;;4.24;94.05;98616.16;5092232;28;20012;-77
2024/02/23 07:24:21;;;;;;;;;;;;;;;4.24;94.72;98619.66;5090941;28;19920;-77
2024/02/23 07:26:53;;;;;;;;;;;;;;;4.28;94.46;98614.72;5092504;28;20335;-78
2024/02/23 07:29:19;;;;;;;;;;;;;;;4.23;95.20;98606.56;5090134;22;19925;-79
2024/02/23 07:31:44;;;;;;;;;;;;;;;4.30;94.74;98604.66;5070682;28;19924;-77
2024/02/23 07:34:09;;;;;;;;;;;;;;;4.39;93.50;98594.59;5079589;28;19924;-77
2024/02/23 07:36:34;;;;;;;;;;;;;;;4.46;93.76;98592.72;5070964;28;20121;-78
2024/02/23 07:39:15;;;;;;;;;;;;;;;4.67;92.37;98591.56;5088046;22;20023;-78
2024/02/23 07:41:40;;;;;;;;;;;;;;;4.88;90.22;98586.09;5099973;22;20016;-78
2024/02/23 07:44:15;;;;;;;;;;;;;;;4.90;90.24;98592.03;5115893;22;19938;-78
2024/02/23 07:46:52;;;;;;;;;;;;;;;4.82;89.45;98593.13;5106402;28;19919;-78
2024/02/23 07:49:32;;;;;;;;;;;;;;;5.19;88.69;98598.59;5083754;28;19927;-77
2024/02/23 07:51:58;;;;;;;;;;;;;;;5.73;87.03;98604.28;5103216;28;19924;-77
2024/02/23 07:54:35;;;;;;;;;;;;;;;6.10;82.81;98614.19;5104752;28;19931;-78
2024/02/23 07:57:16;;;;;;;;;;;;;;;5.64;84.54;98605.59;5113995;28;19967;-77
2024/02/23 07:59:48;;;;;;;;;;;;;;;5.47;85.54;98621.38;5093284;28;19924;-77
2024/02/23 08:02:22;;;;;;;;;;;;;;;5.68;83.95;98619.31;5098918;28;19919;-77
2024/02/23 08:04:48;;;;;;;;;;;;;;;5.87;83.30;98620.97;5095233;28;20061;-77
2024/02/23 08:07:16;;;;;;;;;;;;;;;5.58;83.75;98604.63;5092810;28;20052;-77
2024/02/23 08:09:41;;;;;;;;;;;;;;;5.48;84.67;98598.94;5100541;28;20303;-77
2024/02/23 08:12:06;;;;;;;;;;;;;;;5.37;85.03;98607.69;5102937;28;19924;-78
2024/02/23 08:14:32;;;;;;;;;;;;;;;5.20;86.26;98616.22;5105344;28;19931;-77
2024/02/23 08:16:58;;;;;;;;;;;;;;;5.38;86.28;98609.31;5103739;28;19920;-79
2024/02/23 08:19:23;;;;;;;;;;;;;;;5.32;85.12;98614.47;5097001;28;19919;-75
2024/02/23 08:21:48;;;;;;;;;;;;;;;5.22;85.72;98587.50;5121688;28;19919;-76
2024/02/23 08:24:13;;;;;;;;;;;;;;;5.28;86.00;98607.13;5079156;28;20015;-77
2024/02/23 08:26:40;;;;;;;;;;;;;;;5.22;86.13;98613.34;5104858;28;19956;-76
2024/02/23 08:29:05;;;;;;;;;;;;;;;5.30;86.02;98605.06;5102801;28;19946;-75
2024/02/23 08:31:32;;;;;;;;;;;;;;;5.22;85.17;98598.16;5109169;28;19962;-77
2024/02/23 08:34:00;;;;;;;;;;;;;;;5.36;85.87;98606.03;5092688;28;19931;-76
2024/02/23 08:36:25;;;;;;;;;;;;;;;6.03;82.94;98602.75;5098001;28;19987;-78
2024/02/23 08:38:53;;;;;;;;;;;;;;;6.82;78.75;98602.78;5092185;28;20015;-77
2024/02/23 08:41:18;;;;;;;;;;;;;;;6.77;77.18;98591.94;5075394;28;19920;-76
2024/02/23 08:43:43;;;;;;;;;;;;;;;7.34;72.93;98587.97;5090754;28;19928;-76
2024/02/23 08:46:12;;;;;;;;;;;;;;;7.61;71.94;98606.25;5105558;28;19987;-76
2024/02/23 08:48:38;;;;;;;;;;;;;;;7.86;70.83;98543.59;5110294;28;19967;-76
2024/02/23 08:51:03;;;;;;;;;;;;;;;7.86;70.34;98575.72;5110704;28;19954;-76
2024/02/23 08:53:28;;;;;;;;;;;;;;;7.22;72.33;98598.66;5110610;28;19928;-76
2024/02/23 08:55:53;;;;;;;;;;;;;;;6.74;74.71;98604.94;5110467;28;19965;-76
2024/02/23 08:58:19;;;;;;;;;;;;;;;6.11;76.97;98605.13;5110089;28;20055;-77
2024/02/23 09:00:44;;;;;;;;;;;;;;;6.07;79.26;98601.25;5109973;28;19984;-76
2024/02/23 09:03:09;;;;;;;;;;;;;;;5.71;79.52;98605.53;5109905;28;19996;-77
2024/02/23 09:05:34;;;;;;;;;;;;;;;5.95;79.67;98592.34;5109634;28;19920;-76
2024/02/23 09:08:01;;;;;;;;;;;;;;;5.72;79.70;98588.47;5111850;28;19931;-77
2024/02/23 09:10:27;;;;;;;;;;;;;;;5.85;80.45;98585.66;5112079;28;19920;-77
2024/02/23 09:12:52;;;;;;;;;;;;;;;6.55;77.64;98598.81;5111494;28;19923;-76
2024/02/23 09:15:17;;;;;;;;;;;;;;;6.25;77.02;98583.59;5111842;28;19927;-76
2024/02/23 09:17:45;;;;;;;;;;;;;;;6.85;75.97;98581.97;5112045;28;19920;-75
2024/02/23 09:20:11;;;;;;;;;;;;;;;7.01;74.56;98569.78;5112676;28;19920;-75
2024/02/23 09:22:36;;;;;;;;;;;;;;;7.06;72.81;98572.59;5112121;28;19938;-76
2024/02/23 09:25:02;;;;;;;;;;;;;;;6.78;75.11;98582.88;5112986;28;20012;-76
2024/02/23 09:27:27;;;;;;;;;;;;;;;6.69;73.89;98581.56;5111613;28;19977;-76
2024/02/23 09:29:53;;;;;;;;;;;;;;;6.72;74.88;98588.31;5113703;28;20203;-75
2024/02/23 09:32:18;;;;;;;;;;;;;;;6.68;74.00;98567.38;5114106;28;20006;-75
2024/02/23 09:34:43;;;;;;;;;;;;;;;6.56;74.92;98565.69;5112283;28;19967;-75
2024/02/23 09:37:08;;;;;;;;;;;;;;;6.47;75.04;98582.06;5120855;28;19920;-75
2024/02/23 09:39:34;;;;;;;;;;;;;;;6.49;75.27;98565.78;5114518;28;19928;-76
2024/02/23 09:41:59;;;;;;;;;;;;;;;6.35;76.43;98611.41;5116023;28;19972;-75
2024/02/23 09:44:26;;;;;;;;;;;;;;;6.20;77.41;98606.44;5128966;22;20044;-75
2024/02/23 09:46:51;;;;;;;;;;;;;;;6.09;78.38;98611.75;5052249;28;19932;-75
2024/02/23 09:49:17;;;;;;;;;;;;;;;6.17;77.41;98585.53;5060629;28;19943;-76
2024/02/23 09:51:42;;;;;;;;;;;;;;;6.05;78.19;98595.31;5036408;28;19921;-75
2024/02/23 09:54:07;;;;;;;;;;;;;;;6.04;79.91;98609.72;5055623;28;19928;-76
2024/02/23 09:56:33;;;;;;;;;;;;;;;6.10;80.12;98597.31;5054803;28;19928;-76
2024/02/23 09:58:59;;;;;;;;;;;;;;;6.08;79.60;98605.56;5053047;28;19929;-74
2024/02/23 10:01:27;;;;;;;;;;;;;;;6.00;80.57;98606.69;5054853;28;19924;-76
2024/02/23 10:03:57;;;;;;;;;;;;;;;6.03;80.99;98608.09;5053900;28;19920;-76
2024/02/23 10:06:23;;;;;;;;;;;;;;;6.11;81.08;98614.97;5053079;28;19920;-75
2024/02/23 10:08:49;;;;;;;;;;;;;;;6.15;80.07;98600.16;5051439;28;19928;-75
2024/02/23 10:11:17;;;;;;;;;;;;;;;6.19;80.23;98612.81;5055789;28;19932;-75
2024/02/23 10:13:43;;;;;;;;;;;;;;;6.21;80.32;98618.75;5075286;28;19935;-75
2024/02/23 10:16:08;;;;;;;;;;;;;;;6.23;80.12;98602.53;5062195;28;20011;-74
2024/02/23 10:18:34;;;;;;;;;;;;;;;6.24;78.92;98620.19;5054711;28;20368;-75
2024/02/23 10:20:59;;;;;;;;;;;;;;;6.32;79.76;98621.75;5053584;28;20032;-76
2024/02/23 10:23:25;;;;;;;;;;;;;;;6.17;79.03;98619.44;5053873;28;19921;-76
2024/02/23 10:25:50;;;;;;;;;;;;;;;6.06;80.34;98603.13;5053210;28;19927;-76
2024/02/23 10:28:16;;;;;;;;;;;;;;;5.99;79.95;98620.25;5052313;28;20295;-76
2024/02/23 10:30:41;;;;;;;;;;;;;;;5.88;80.33;98638.63;5053473;28;19948;-76
2024/02/23 10:33:06;;;;;;;;;;;;;;;5.83;81.10;98633.13;5052900;28;19924;-77
2024/02/23 10:35:32;;;;;;;;;;;;;;;5.84;81.60;98637.41;5052090;28;19921;-76
2024/02/23 10:37:57;;;;;;;;;;;;;;;5.72;81.83;98645.38;5052892;28;20253;-77
2024/02/23 10:40:24;;;;;;;;;;;;;;;5.74;81.61;98637.13;5053213;28;20404;-76
2024/02/23 10:42:53;;;;;;;;;;;;;;;5.75;81.82;98642.22;5047409;28;19921;-77
2024/02/23 10:45:19;;;;;;;;;;;;;;;5.77;81.47;98632.16;5036093;28;20058;-78
2024/02/23 10:47:44;;;;;;;;;;;;;;;5.80;81.72;98640.75;5052906;28;19921;-78
2024/02/23 10:50:09;;;;;;;;;;;;;;;5.86;81.98;98646.03;5052110;28;19991;-77
2024/02/23 10:52:35;;;;;;;;;;;;;;;5.88;82.27;98632.47;5054348;28;19939;-78
2024/02/23 10:55:00;;;;;;;;;;;;;;;5.96;82.42;98644.72;5060378;28;20380;-78
2024/02/23 10:57:25;;;;;;;;;;;;;;;5.96;83.39;98640.19;5056456;28;19920;-78
2024/02/23 10:59:50;;;;;;;;;;;;;;;6.03;81.93;98630.28;5059015;28;19943;-79
2024/02/23 11:02:17;;;;;;;;;;;;;;;6.01;81.13;98656.41;5068252;28;20503;-78
2024/02/23 11:04:43;;;;;;;;;;;;;;;6.02;82.21;98657.19;5052822;28;19990;-77
2024/02/23 11:07:12;;;;;;;;;;;;;;;6.02;82.96;98665.22;5045592;28;20419;-78
2024/02/23 11:09:38;;;;;;;;;;;;;;;5.87;82.89;98658.34;5057497;28;19924;-77
2024/02/23 11:12:04;;;;;;;;;;;;;;;5.81;83.53;98661.09;5054456;28;20350;-78
2024/02/23 11:14:36;;;;;;;;;;;;;;;5.84;84.65;98674.00;5045221;28;20300;-78
2024/02/23 11:17:02;;;;;;;;;;;;;;;5.72;84.71;98666.72;5052268;28;19956;-78
2024/02/23 11:19:34;;;;;;;;;;;;;;;5.73;85.41;98667.53;5044245;28;19928;-77
2024/02/23 11:22:00;;;;;;;;;;;;;;;5.73;85.77;98665.69;5053224;28;20268;-77
2024/02/23 11:24:25;;;;;;;;;;;;;;;5.68;85.26;98678.03;5045688;28;19931;-77
2024/02/23 11:26:50;;;;;;;;;;;;;;;5.72;86.64;98687.25;5040714;28;19932;-77
2024/02/23 11:29:16;;;;;;;;;;;;;;;5.72;85.79;98681.91;5030354;28;19920;-77
2024/02/23 11:32:00;;;;;;;;;;;;;;;5.73;86.24;98679.03;5026873;28;19942;-77
2024/02/23 11:34:26;;;;;;;;;;;;;;;5.77;87.11;98679.41;5045636;28;19921;-77
2024/02/23 11:36:52;;;;;;;;;;;;;;;5.81;85.91;98647.72;5046480;28;20671;-77
2024/02/23 11:39:21;;;;;;;;;;;;;;;5.83;85.14;98678.50;5041420;28;20070;-77
2024/02/23 11:41:50;;;;;;;;;;;;;;;5.89;86.25;98688.31;5031751;28;19920;-78
2024/02/23 11:44:19;;;;;;;;;;;;;;;6.16;84.60;98688.09;5047543;28;20300;-78
2024/02/23 11:46:45;;;;;;;;;;;;;;;6.30;83.08;98680.72;5047135;28;20212;-78
2024/02/23 11:49:10;;;;;;;;;;;;;;;6.36;82.59;98687.03;5069589;28;20050;-77
2024/02/23 11:51:35;;;;;;;;;;;;;;;6.34;82.78;98683.81;5068185;28;20023;-77
2024/02/23 11:54:00;;;;;;;;;;;;;;;6.26;83.09;98671.56;5045338;28;19924;-79
2024/02/23 11:56:28;;;;;;;;;;;;;;;6.35;81.51;98682.75;5062317;28;19935;-77
2024/02/23 11:58:54;;;;;;;;;;;;;;;6.30;82.60;98690.63;5069318;28;20415;-76
2024/02/23 12:01:22;;;;;;;;;;;;;;;6.21;82.23;98666.84;5065738;28;19928;-77
2024/02/23 12:03:48;;;;;;;;;;;;;;;6.20;83.11;98689.25;5066828;28;19920;-76
2024/02/23 12:06:15;;;;;;;;;;;;;;;6.14;84.20;98689.34;5063334;28;19925;-76
2024/02/23 12:08:41;;;;;;;;;;;;;;;6.10;84.52;98694.31;5083323;28;19935;-76
2024/02/23 12:11:09;;;;;;;;;;;;;;;6.00;85.63;98705.50;5048798;28;19944;-77
2024/02/23 12:13:35;;;;;;;;;;;;;;;6.02;86.21;98698.09;5068535;28;19935;-76
2024/02/23 12:16:01;;;;;;;;;;;;;;;5.99;84.83;98701.16;5063645;28;19924;-75
2024/02/23 12:18:26;;;;;;;;;;;;;;;6.14;86.73;98703.53;5068521;28;19924;-77
2024/02/23 12:20:52;;;;;;;;;;;;;;;6.09;85.44;98695.34;5059325;28;20327;-76
2024/02/23 12:23:17;;;;;;;;;;;;;;;6.04;85.91;98712.03;5063206;28;20015;-76
2024/02/23 12:25:55;;;;;;;;;;;;;;;6.03;85.25;98712.25;5067928;28;20002;-77
2024/02/23 12:28:21;;;;;;;;;;;;;;;5.96;84.98;98717.63;5061844;28;20011;-77
2024/02/23 12:30:49;;;;;;;;;;;;;;;5.99;84.86;98717.19;5037730;28;20376;-76
2024/02/23 12:33:15;;;;;;;;;;;;;;;6.02;85.47;98723.97;5069455;28;20011;-77
2024/02/23 12:35:41;;;;;;;;;;;;;;;6.00;85.33;98721.53;5062752;28;19925;-78
2024/02/23 12:38:06;;;;;;;;;;;;;;;6.05;84.96;98728.88;5069207;28;19928;-76
2024/02/23 12:40:31;;;;;;;;;;;;;;;6.09;85.43;98729.28;5065279;28;20003;-77
2024/02/23 12:42:56;;;;;;;;;;;;;;;6.06;85.94;98723.34;5066999;28;20007;-76
2024/02/23 12:45:21;;;;;;;;;;;;;;;6.05;86.40;98723.53;5045989;28;19920;-76
2024/02/23 12:47:48;;;;;;;;;;;;;;;6.17;84.62;98726.31;5066286;28;19920;-76